Stolt Jade — ZCSQ4 — position and weather

sailwx.info

Track history (hours):
 
Tides and Currents Weather Stations Pressure Air Temp Water Temp Dewpoint Dewpoint Depression Visibility Wind Speed Wind Dir Waves Ship Positions

Stolt Jade

Last reported at 2016-Feb-04 06:31 UTC. Time now 2016-Feb-09 17:44 UTC.
Position N 34°11' E 134°57'.

Length 175 m; draft 11 m.

Type: Ship (hazmat cat C). MMSI: 319439000.

Date/timePositionNaut miles runAvg speedWind from/ knotsBaromVisibWave heightAir tempDewpointWater temp
2016-Feb-04 06:31N 34°11' E 134°57'1312.9
2016-Feb-04 05:33N 34°24' E 135°02'1413.6
2016-Feb-04 04:33N 34°33' E 135°14'6 6.1
2016-Feb-04 03:30N 34°39' E 135°17'0 0.0
2016-Feb-04 02:18N 34°39' E 135°17'0 0.1
2016-Feb-04 01:30N 34°39' E 135°17'0 0.1
2016-Feb-04 00:12N 34°39' E 135°17'0 0.1
2016-Feb-03 23:18N 34°39' E 135°17'0 0.0
2016-Feb-03 22:24N 34°39' E 135°17'0 0.0
2016-Feb-03 21:30N 34°39' E 135°17'0 0.0
2016-Feb-03 20:24N 34°39' E 135°17'0 0.0
2016-Feb-03 19:30N 34°39' E 135°17'0 0.0
2016-Feb-03 18:30N 34°39' E 135°17'0 0.0
2016-Feb-03 17:24N 34°39' E 135°17'0 0.1
2016-Feb-03 16:30N 34°39' E 135°17'0 0.0
2016-Feb-03 15:18N 34°39' E 135°17'0 0.0
2016-Feb-03 14:24N 34°39' E 135°17'0 0.0
2016-Feb-03 13:30N 34°39' E 135°17'0 0.0
2016-Feb-03 12:30N 34°39' E 135°17'0 0.0
2016-Feb-03 11:12N 34°39' E 135°17'0 0.0
2016-Feb-03 10:28N 34°39' E 135°17'0 0.0
2016-Feb-03 09:28N 34°39' E 135°17'0 0.0
2016-Feb-03 08:28N 34°39' E 135°17'1 1.1
2016-Feb-03 07:33N 34°38' E 135°17'1110.7
2016-Feb-03 06:33N 34°28' E 135°11'1413.2
2016-Feb-03 05:29N 34°17' E 134°60'1011.2
2016-Feb-03 04:32N 34°07' E 134°60'7 7.1
2016-Feb-03 03:33N 33°60' E 135°00'244 9.0
2016-Feb-02 00:33N 35°08' E 139°45'1110.7
2016-Feb-01 23:34N 35°19' E 139°43'4 3.5
2016-Feb-01 22:33N 35°22' E 139°41'0 0.0
2016-Feb-01 21:33N 35°22' E 139°41'0 0.0
2016-Feb-01 20:30N 35°22' E 139°41'0 0.0
2016-Feb-01 19:33N 35°22' E 139°41'0 0.0
2016-Feb-01 18:30N 35°22' E 139°41'0 0.0
2016-Feb-01 17:33N 35°22' E 139°41'0 0.0
2016-Feb-01 16:33N 35°22' E 139°41'0 0.0
2016-Feb-01 15:33N 35°22' E 139°41'0 0.0
2016-Feb-01 14:33N 35°22' E 139°41'0 0.1
2016-Feb-01 13:33N 35°22' E 139°41'0 0.0
2016-Feb-01 12:33N 35°22' E 139°41'0 0.1
2016-Feb-01 11:33N 35°22' E 139°41'0 0.0
2016-Feb-01 10:33N 35°22' E 139°41'0 0.0
2016-Feb-01 09:30N 35°22' E 139°41'1 1.3
2016-Feb-01 08:33N 35°21' E 139°42'7 6.5
2016-Feb-01 07:33N 35°27' E 139°45'0 0.1
2016-Feb-01 06:32N 35°27' E 139°45'0 0.0
2016-Feb-01 05:31N 35°27' E 139°45'0 0.1
2016-Feb-01 04:31N 35°27' E 139°45'0 0.0
2016-Feb-01 03:31N 35°27' E 139°45'0 0.0
2016-Feb-01 02:31N 35°27' E 139°45'0 0.0
2016-Feb-01 01:31N 35°27' E 139°45'0 0.0
2016-Feb-01 00:31N 35°27' E 139°45'0 0.0
2016-Jan-31 23:28N 35°27' E 139°45'0 0.0
2016-Jan-31 22:31N 35°27' E 139°45'0 0.0
2016-Jan-31 21:31N 35°27' E 139°45'0 0.0
2016-Jan-31 20:28N 35°27' E 139°45'0 0.0
2016-Jan-31 19:31N 35°27' E 139°45'0 0.0
2016-Jan-31 18:31N 35°27' E 139°45'0 0.0
2016-Jan-31 17:31N 35°27' E 139°45'0 0.0
2016-Jan-31 16:31N 35°27' E 139°45'0 0.1
2016-Jan-31 15:31N 35°27' E 139°45'0 0.1
2016-Jan-31 14:31N 35°27' E 139°45'0 0.0
2016-Jan-31 13:31N 35°27' E 139°45'0 0.1
2016-Jan-31 12:31N 35°27' E 139°45'0 0.1
2016-Jan-31 11:31N 35°27' E 139°45'0 0.2
2016-Jan-31 10:31N 35°27' E 139°45'5 4.9
2016-Jan-31 09:33N 35°23' E 139°46'1211.6
2016-Jan-31 08:34N 35°11' E 139°47'8 7.6
2016-Jan-31 07:33N 35°04' E 139°45'10 9.5
2016-Jan-31 06:33N 34°54' E 139°42'1010.0
2016-Jan-31 05:32N 34°45' E 139°48'1110.6
2016-Jan-31 04:27N 34°41' E 140°01'  
Track history (hours):
 
Tides and Currents Weather Stations Pressure Air Temp Water Temp Dewpoint Dewpoint Depression Visibility Wind Speed Wind Dir Waves Ship Positions

Stolt Jade

Last reported at 2016-Feb-04 06:31 UTC. Time now 2016-Feb-09 17:44 UTC.
Position N 34°11' E 134°57'.

Length 175 m; draft 11 m.

Type: Ship (hazmat cat C). MMSI: 319439000.

Date/timePositionNaut miles runAvg speedWind from/ knotsBaromVisibWave heightAir tempDewpointWater temp
2016-Feb-04 06:31N 34°11' E 134°57'1312.9
2016-Feb-04 05:33N 34°24' E 135°02'1413.6
2016-Feb-04 04:33N 34°33' E 135°14'6 6.1
2016-Feb-04 03:30N 34°39' E 135°17'0 0.0
2016-Feb-04 02:18N 34°39' E 135°17'0 0.1
2016-Feb-04 01:30N 34°39' E 135°17'0 0.1
2016-Feb-04 00:12N 34°39' E 135°17'0 0.1
2016-Feb-03 23:18N 34°39' E 135°17'0 0.0
2016-Feb-03 22:24N 34°39' E 135°17'0 0.0
2016-Feb-03 21:30N 34°39' E 135°17'0 0.0
2016-Feb-03 20:24N 34°39' E 135°17'0 0.0
2016-Feb-03 19:30N 34°39' E 135°17'0 0.0
2016-Feb-03 18:30N 34°39' E 135°17'0 0.0
2016-Feb-03 17:24N 34°39' E 135°17'0 0.1
2016-Feb-03 16:30N 34°39' E 135°17'0 0.0
2016-Feb-03 15:18N 34°39' E 135°17'0 0.0
2016-Feb-03 14:24N 34°39' E 135°17'0 0.0
2016-Feb-03 13:30N 34°39' E 135°17'0 0.0
2016-Feb-03 12:30N 34°39' E 135°17'0 0.0
2016-Feb-03 11:12N 34°39' E 135°17'0 0.0
2016-Feb-03 10:28N 34°39' E 135°17'0 0.0
2016-Feb-03 09:28N 34°39' E 135°17'0 0.0
2016-Feb-03 08:28N 34°39' E 135°17'1 1.1
2016-Feb-03 07:33N 34°38' E 135°17'1110.7
2016-Feb-03 06:33N 34°28' E 135°11'1413.2
2016-Feb-03 05:29N 34°17' E 134°60'1011.2
2016-Feb-03 04:32N 34°07' E 134°60'7 7.1
2016-Feb-03 03:33N 33°60' E 135°00'244 9.0
2016-Feb-02 00:33N 35°08' E 139°45'1110.7
2016-Feb-01 23:34N 35°19' E 139°43'4 3.5
2016-Feb-01 22:33N 35°22' E 139°41'0 0.0
2016-Feb-01 21:33N 35°22' E 139°41'0 0.0
2016-Feb-01 20:30N 35°22' E 139°41'0 0.0
2016-Feb-01 19:33N 35°22' E 139°41'0 0.0
2016-Feb-01 18:30N 35°22' E 139°41'0 0.0
2016-Feb-01 17:33N 35°22' E 139°41'0 0.0
2016-Feb-01 16:33N 35°22' E 139°41'0 0.0
2016-Feb-01 15:33N 35°22' E 139°41'0 0.0
2016-Feb-01 14:33N 35°22' E 139°41'0 0.1
2016-Feb-01 13:33N 35°22' E 139°41'0 0.0
2016-Feb-01 12:33N 35°22' E 139°41'0 0.1
2016-Feb-01 11:33N 35°22' E 139°41'0 0.0
2016-Feb-01 10:33N 35°22' E 139°41'0 0.0
2016-Feb-01 09:30N 35°22' E 139°41'1 1.3
2016-Feb-01 08:33N 35°21' E 139°42'7 6.5
2016-Feb-01 07:33N 35°27' E 139°45'0 0.1
2016-Feb-01 06:32N 35°27' E 139°45'0 0.0
2016-Feb-01 05:31N 35°27' E 139°45'0 0.1
2016-Feb-01 04:31N 35°27' E 139°45'0 0.0
2016-Feb-01 03:31N 35°27' E 139°45'0 0.0
2016-Feb-01 02:31N 35°27' E 139°45'0 0.0
2016-Feb-01 01:31N 35°27' E 139°45'0 0.0
2016-Feb-01 00:31N 35°27' E 139°45'0 0.0
2016-Jan-31 23:28N 35°27' E 139°45'0 0.0
2016-Jan-31 22:31N 35°27' E 139°45'0 0.0
2016-Jan-31 21:31N 35°27' E 139°45'0 0.0
2016-Jan-31 20:28N 35°27' E 139°45'0 0.0
2016-Jan-31 19:31N 35°27' E 139°45'0 0.0
2016-Jan-31 18:31N 35°27' E 139°45'0 0.0
2016-Jan-31 17:31N 35°27' E 139°45'0 0.0
2016-Jan-31 16:31N 35°27' E 139°45'0 0.1
2016-Jan-31 15:31N 35°27' E 139°45'0 0.1
2016-Jan-31 14:31N 35°27' E 139°45'0 0.0
2016-Jan-31 13:31N 35°27' E 139°45'0 0.1
2016-Jan-31 12:31N 35°27' E 139°45'0 0.1
2016-Jan-31 11:31N 35°27' E 139°45'0 0.2
2016-Jan-31 10:31N 35°27' E 139°45'5 4.9
2016-Jan-31 09:33N 35°23' E 139°46'1211.6
2016-Jan-31 08:34N 35°11' E 139°47'8 7.6
2016-Jan-31 07:33N 35°04' E 139°45'10 9.5
2016-Jan-31 06:33N 34°54' E 139°42'1010.0
2016-Jan-31 05:32N 34°45' E 139°48'1110.6
2016-Jan-31 04:27N 34°41' E 140°01'  

Dump ship's entire track history